Time;durP1;ratioP1;P1;durP2;ratioP2;P2;SDS_P1;SDS_P2;PMS_P1;PMS_P2;Temp;Humidity;BMP_temperature;BMP_pressure;BME280_temperature;BME280_humidity;BME280_pressure;Samples;Min_cycle;Max_cycle;Signal;HPM_P1;HPM_P2
2021/12/02 00:01:38;;;;;;;8.90;0.90;;;2.80;99.90;;;;;;5008408;28;20684;-41
2021/12/02 00:04:05;;;;;;;3.40;0.50;;;2.80;99.90;;;;;;5021364;28;20203;-45
2021/12/02 00:06:32;;;;;;;9.40;1.30;;;2.80;99.90;;;;;;5028797;28;20219;-44
2021/12/02 00:08:59;;;;;;;6.33;0.80;;;2.80;99.90;;;;;;5015956;28;20227;-41
2021/12/02 00:11:25;;;;;;;3.77;0.80;;;2.80;99.90;;;;;;5018719;28;20208;-42
2021/12/02 00:13:56;;;;;;;5.23;0.80;;;2.80;99.90;;;;;;5023374;28;20211;-41
2021/12/02 00:16:30;;;;;;;2.10;0.83;;;2.80;99.90;;;;;;5023163;28;20210;-44
2021/12/02 00:21:45;;;;;;;3.43;0.97;;;2.90;99.90;;;;;;5016865;28;20736;-41
2021/12/02 00:24:18;;;;;;;4.80;0.70;;;2.90;99.90;;;;;;5026413;28;20208;-40
2021/12/02 00:26:46;;;;;;;2.80;0.80;;;2.90;99.90;;;;;;5023917;28;20204;-45
2021/12/02 00:29:17;;;;;;;3.93;1.00;;;2.90;99.90;;;;;;5026355;28;20219;-43
2021/12/02 00:31:46;;;;;;;2.03;0.80;;;2.90;99.90;;;;;;5024107;28;20199;-44
2021/12/02 00:34:13;;;;;;;6.20;0.90;;;2.90;99.90;;;;;;5013304;28;20688;-41
2021/12/02 00:36:40;;;;;;;3.50;1.00;;;3.00;99.90;;;;;;5020423;28;20469;-46
2021/12/02 00:39:11;;;;;;;5.00;0.60;;;2.90;99.90;;;;;;5030299;28;20200;-42
2021/12/02 00:41:38;;;;;;;2.30;0.80;;;2.90;99.90;;;;;;5022351;28;20202;-42
2021/12/02 00:44:05;;;;;;;3.50;0.90;;;2.90;99.90;;;;;;5026403;28;20192;-41
2021/12/02 00:46:34;;;;;;;7.00;0.77;;;2.90;99.90;;;;;;5022422;28;20796;-41
2021/12/02 00:49:03;;;;;;;1.60;0.90;;;2.90;99.90;;;;;;5022217;28;20220;-43
2021/12/02 00:51:31;;;;;;;4.00;1.40;;;2.80;99.90;;;;;;5014525;28;20242;-42
2021/12/02 00:54:02;;;;;;;5.53;0.93;;;2.80;99.90;;;;;;5022702;28;20299;-42
2021/12/02 00:56:29;;;;;;;5.60;1.03;;;2.90;99.90;;;;;;5034964;28;20204;-44
2021/12/02 00:58:55;;;;;;;5.03;0.90;;;2.90;99.90;;;;;;5025909;28;20570;-45
2021/12/02 01:01:25;;;;;;;3.60;0.60;;;2.90;99.90;;;;;;5021375;28;20912;-42
2021/12/02 01:03:56;;;;;;;1.57;0.47;;;2.90;99.90;;;;;;5025829;28;20204;-43
2021/12/02 01:06:23;;;;;;;5.90;0.80;;;2.90;99.90;;;;;;5008508;28;20207;-42
2021/12/02 01:08:50;;;;;;;2.40;0.73;;;2.90;99.90;;;;;;5029085;28;20219;-46
2021/12/02 01:11:17;;;;;;;1.73;0.73;;;2.80;99.90;;;;;;5023823;28;20683;-42
2021/12/02 01:13:44;;;;;;;1.33;0.80;;;2.80;99.90;;;;;;5025823;28;20562;-41
2021/12/02 01:16:11;;;;;;;5.53;0.90;;;2.80;99.90;;;;;;5022710;28;20208;-42
2021/12/02 01:18:38;;;;;;;2.63;0.80;;;2.80;99.90;;;;;;5024382;28;21011;-41
2021/12/02 01:21:06;;;;;;;2.77;0.70;;;2.80;99.90;;;;;;5011429;28;20219;-44
2021/12/02 01:23:34;;;;;;;1.03;0.30;;;2.70;99.90;;;;;;5026624;28;20231;-45
2021/12/02 01:26:03;;;;;;;1.07;0.43;;;2.70;99.90;;;;;;5023786;28;20204;-44
2021/12/02 01:28:31;;;;;;;3.00;0.70;;;2.70;99.90;;;;;;5034274;28;20215;-42
2021/12/02 01:30:58;;;;;;;1.17;0.33;;;2.70;99.90;;;;;;5025454;28;20192;-44
2021/12/02 01:33:27;;;;;;;4.23;0.53;;;2.60;99.90;;;;;;5021305;28;20211;-42
2021/12/02 01:35:57;;;;;;;0.90;0.50;;;2.60;99.90;;;;;;5012338;28;20227;-42
2021/12/02 01:38:26;;;;;;;2.43;0.43;;;2.60;99.90;;;;;;5018359;28;20223;-41
2021/12/02 01:40:54;;;;;;;2.30;0.67;;;2.60;99.90;;;;;;5031005;28;20200;-44
2021/12/02 01:43:32;;;;;;;1.20;0.60;;;2.60;99.90;;;;;;5027144;28;20203;-42
2021/12/02 01:45:58;;;;;;;6.03;0.67;;;2.60;99.90;;;;;;5032128;28;20199;-44
2021/12/02 01:48:25;;;;;;;1.67;0.83;;;2.60;99.90;;;;;;5021107;28;20216;-45
2021/12/02 01:51:01;;;;;;;4.03;0.50;;;2.50;99.90;;;;;;5012136;28;20204;-43
2021/12/02 01:53:33;;;;;;;3.53;0.70;;;2.50;99.90;;;;;;5019009;28;20198;-42
2021/12/02 01:56:10;;;;;;;1.53;0.50;;;2.50;99.90;;;;;;5028983;28;20220;-43
2021/12/02 01:58:43;;;;;;;3.23;0.60;;;2.50;99.90;;;;;;5023684;28;20231;-45
2021/12/02 02:01:15;;;;;;;5.93;0.80;;;2.50;99.90;;;;;;5026372;28;20199;-42
2021/12/02 02:03:43;;;;;;;1.43;0.70;;;2.50;99.90;;;;;;5024509;28;20212;-41
2021/12/02 02:06:10;;;;;;;2.87;0.57;;;2.40;99.90;;;;;;5009648;28;20262;-43
2021/12/02 02:08:44;;;;;;;5.23;0.60;;;2.40;99.90;;;;;;5014530;28;20231;-43
2021/12/02 02:11:11;;;;;;;1.90;0.40;;;2.40;99.90;;;;;;5024346;28;20633;-44
2021/12/02 02:13:40;;;;;;;5.27;0.60;;;2.40;99.90;;;;;;5023356;28;20219;-48
2021/12/02 02:16:07;;;;;;;3.27;0.50;;;2.40;99.90;;;;;;5038538;28;20301;-42
2021/12/02 02:18:33;;;;;;;1.73;0.70;;;2.30;99.90;;;;;;5026663;28;20965;-42
2021/12/02 02:21:02;;;;;;;3.17;0.60;;;2.30;99.90;;;;;;5021470;28;20211;-41
2021/12/02 02:23:31;;;;;;;5.80;0.43;;;2.30;99.90;;;;;;5011844;28;20674;-43
2021/12/02 02:25:58;;;;;;;1.47;0.50;;;2.30;99.90;;;;;;5019699;28;20215;-42
2021/12/02 02:28:25;;;;;;;0.40;0.30;;;2.30;99.90;;;;;;5020351;28;20227;-41
2021/12/02 02:30:52;;;;;;;0.97;0.83;;;2.20;99.90;;;;;;5030035;28;20219;-44
2021/12/02 02:33:19;;;;;;;3.23;0.60;;;2.20;99.90;;;;;;5020166;28;20196;-42
2021/12/02 02:35:47;;;;;;;1.80;0.60;;;2.20;99.90;;;;;;5023893;28;20697;-41
2021/12/02 02:38:15;;;;;;;4.00;0.50;;;2.20;99.90;;;;;;5008205;28;20231;-43
2021/12/02 02:40:44;;;;;;;3.27;0.70;;;2.20;99.90;;;;;;5023836;28;20272;-41
2021/12/02 02:43:12;;;;;;;1.70;0.40;;;2.20;99.90;;;;;;5037026;28;20913;-44
2021/12/02 02:45:39;;;;;;;4.63;1.63;;;2.20;99.90;;;;;;5026814;28;20215;-42
2021/12/02 02:48:06;;;;;;;2.97;0.60;;;2.20;99.90;;;;;;5022102;28;20226;-42
2021/12/02 02:50:34;;;;;;;1.03;0.40;;;2.20;99.90;;;;;;5022069;28;20219;-43
2021/12/02 02:53:05;;;;;;;1.87;0.40;;;2.20;99.90;;;;;;5010523;28;20289;-45
2021/12/02 02:55:35;;;;;;;1.30;0.30;;;2.20;99.90;;;;;;5021281;28;20955;-41
2021/12/02 02:58:06;;;;;;;2.90;0.57;;;2.10;99.90;;;;;;5028346;28;20255;-41
2021/12/02 03:00:34;;;;;;;3.20;0.60;;;2.20;99.90;;;;;;5020798;28;22869;-43
2021/12/02 03:03:17;;;;;;;1.67;0.53;;;2.20;99.90;;;;;;5030565;28;20269;-44
2021/12/02 03:05:50;;;;;;;1.10;0.37;;;2.10;99.90;;;;;;5023552;28;20207;-45
2021/12/02 03:08:20;;;;;;;2.47;0.33;;;2.10;99.90;;;;;;5008111;28;20227;-42
2021/12/02 03:10:55;;;;;;;4.37;0.60;;;2.10;99.90;;;;;;5016811;28;20196;-45
2021/12/02 03:13:24;;;;;;;3.10;0.33;;;2.10;99.90;;;;;;5023129;28;20199;-44
2021/12/02 03:18:36;;;;;;;0.90;0.30;;;2.00;99.90;;;;;;5033060;28;20908;-41
2021/12/02 03:21:03;;;;;;;2.67;0.40;;;2.00;99.90;;;;;;5022491;28;20211;-44
2021/12/02 03:23:30;;;;;;;4.10;0.67;;;2.00;99.90;;;;;;5007808;28;20214;-42
2021/12/02 03:26:00;;;;;;;2.13;0.40;;;2.00;99.90;;;;;;5027860;28;20214;-45
2021/12/02 03:28:26;;;;;;;1.13;0.40;;;2.00;99.90;;;;;;5034428;28;20227;-42
2021/12/02 03:30:53;;;;;;;3.20;0.73;;;2.00;99.90;;;;;;5023812;28;20208;-44
2021/12/02 03:33:19;;;;;;;3.77;0.50;;;1.90;99.90;;;;;;5027283;28;20219;-42
2021/12/02 03:35:46;;;;;;;0.70;0.40;;;1.90;99.90;;;;;;5023134;28;20228;-42
2021/12/02 03:38:13;;;;;;;1.87;0.57;;;1.90;99.90;;;;;;5020377;28;20238;-41
2021/12/02 03:40:40;;;;;;;5.07;0.50;;;1.90;99.90;;;;;;5009433;28;20543;-43
2021/12/02 03:43:08;;;;;;;1.40;0.40;;;1.90;99.90;;;;;;5024964;28;20207;-41
2021/12/02 03:45:37;;;;;;;1.17;0.37;;;1.90;99.90;;;;;;5021402;28;20188;-43
2021/12/02 03:48:04;;;;;;;1.93;0.23;;;1.90;99.90;;;;;;5025697;28;20305;-41
2021/12/02 03:50:31;;;;;;;1.40;0.30;;;1.80;99.90;;;;;;5032441;28;20216;-43
2021/12/02 03:52:57;;;;;;;0.73;0.40;;;1.80;99.90;;;;;;5027280;28;20207;-42
2021/12/02 03:55:24;;;;;;;4.00;0.50;;;1.80;99.90;;;;;;5010508;28;21172;-42
2021/12/02 03:57:51;;;;;;;1.73;0.33;;;1.80;99.90;;;;;;5028229;28;20241;-40
2021/12/02 04:00:19;;;;;;;3.03;0.50;;;1.70;99.90;;;;;;5024360;28;20549;-43
2021/12/02 04:02:45;;;;;;;0.90;0.40;;;1.70;99.90;;;;;;5028255;28;20211;-42
2021/12/02 04:05:12;;;;;;;2.00;0.30;;;1.70;99.90;;;;;;5032239;28;20195;-41
2021/12/02 04:07:39;;;;;;;1.40;0.83;;;1.70;99.90;;;;;;5025579;28;20224;-42
2021/12/02 04:10:06;;;;;;;0.77;0.60;;;1.70;99.90;;;;;;5025394;28;20196;-46
2021/12/02 04:12:44;;;;;;;3.10;0.40;;;1.70;99.90;;;;;;5010607;28;20558;-44
2021/12/02 04:15:13;;;;;;;4.10;0.60;;;1.60;99.90;;;;;;5027463;28;20692;-42
2021/12/02 04:17:42;;;;;;;0.67;0.47;;;1.60;99.90;;;;;;5025717;28;20338;-41
2021/12/02 04:20:13;;;;;;;1.93;0.60;;;1.60;99.90;;;;;;5025779;28;20204;-44
2021/12/02 04:22:40;;;;;;;2.07;0.50;;;1.60;99.90;;;;;;5025878;28;20223;-40
2021/12/02 04:25:08;;;;;;;2.90;1.00;;;1.60;99.90;;;;;;5023414;28;20545;-43
2021/12/02 04:27:35;;;;;;;4.37;0.60;;;1.50;99.90;;;;;;5014469;28;20220;-41
2021/12/02 04:30:02;;;;;;;6.47;1.13;;;1.50;99.90;;;;;;5029237;28;20212;-42
2021/12/02 04:32:28;;;;;;;3.70;0.70;;;1.60;99.90;;;;;;5023833;28;20869;-41
2021/12/02 04:34:56;;;;;;;0.80;0.50;;;1.60;99.90;;;;;;5036296;28;20215;-45
2021/12/02 04:37:23;;;;;;;3.20;0.67;;;1.60;99.90;;;;;;5021617;28;20227;-42
2021/12/02 04:39:49;;;;;;;3.20;0.70;;;1.60;99.90;;;;;;5026612;28;20210;-45
2021/12/02 04:42:16;;;;;;;1.07;0.70;;;1.50;99.90;;;;;;5004954;28;20210;-42
2021/12/02 04:44:43;;;;;;;1.53;0.50;;;1.60;99.90;;;;;;5029750;28;20200;-44
2021/12/02 04:47:10;;;;;;;2.90;0.70;;;1.50;99.90;;;;;;5023354;28;20238;-44
2021/12/02 04:49:37;;;;;;;2.60;0.50;;;1.50;99.90;;;;;;5021781;28;20215;-43
2021/12/02 04:52:05;;;;;;;0.27;0.27;;;1.50;99.90;;;;;;5025057;28;20200;-42
2021/12/02 04:54:32;;;;;;;1.33;0.40;;;1.50;99.90;;;;;;5023678;28;20195;-45
2021/12/02 04:57:00;;;;;;;1.17;0.47;;;1.50;99.90;;;;;;5024994;28;20220;-43
2021/12/02 04:59:27;;;;;;;1.70;0.50;;;1.50;99.90;;;;;;5008725;28;21046;-46
2021/12/02 05:01:54;;;;;;;4.53;0.50;;;1.50;99.90;;;;;;5029432;28;20538;-41
2021/12/02 05:04:20;;;;;;;2.37;0.40;;;1.50;99.90;;;;;;5021546;28;20200;-44
2021/12/02 05:06:47;;;;;;;0.87;0.53;;;1.50;99.90;;;;;;5019247;28;20967;-42
2021/12/02 05:09:15;;;;;;;1.40;0.53;;;1.50;99.90;;;;;;5024043;28;20907;-46
2021/12/02 05:11:42;;;;;;;1.80;0.70;;;1.40;99.90;;;;;;5021624;28;20191;-41
2021/12/02 05:14:09;;;;;;;2.10;0.63;;;1.40;99.90;;;;;;5012903;28;20274;-43
2021/12/02 05:16:36;;;;;;;2.83;0.50;;;1.40;99.90;;;;;;5021458;28;20220;-41
2021/12/02 05:19:03;;;;;;;1.27;0.60;;;1.40;99.90;;;;;;5024447;28;20235;-42
2021/12/02 05:21:29;;;;;;;3.70;0.80;;;1.40;99.90;;;;;;5021466;28;20667;-43
2021/12/02 05:23:56;;;;;;;4.03;0.50;;;1.40;99.90;;;;;;5026117;28;20202;-42
2021/12/02 05:26:25;;;;;;;1.20;0.70;;;1.40;99.90;;;;;;5028073;28;20203;-40
2021/12/02 05:28:53;;;;;;;2.90;0.60;;;1.40;99.90;;;;;;5025290;28;20222;-43
2021/12/02 05:31:21;;;;;;;3.57;0.80;;;1.40;99.90;;;;;;5011098;28;20332;-41
2021/12/02 05:33:48;;;;;;;1.63;0.53;;;1.40;99.90;;;;;;5022875;28;20199;-41
2021/12/02 05:36:14;;;;;;;2.17;0.53;;;1.40;99.90;;;;;;5025084;28;20253;-42
2021/12/02 05:38:42;;;;;;;4.00;0.60;;;1.40;99.90;;;;;;5024287;28;20225;-44
2021/12/02 05:41:10;;;;;;;2.13;0.70;;;1.40;99.90;;;;;;5022610;28;20595;-41
2021/12/02 05:43:38;;;;;;;2.77;0.60;;;1.40;99.90;;;;;;5022607;28;20196;-45
2021/12/02 05:46:05;;;;;;;2.07;0.60;;;1.40;99.90;;;;;;5011288;28;20210;-45
2021/12/02 05:48:32;;;;;;;1.87;0.60;;;1.40;99.90;;;;;;5022761;28;20300;-42
2021/12/02 05:50:59;;;;;;;1.47;0.27;;;1.40;99.90;;;;;;5021206;28;20196;-43
2021/12/02 05:53:26;;;;;;;4.87;1.00;;;1.40;99.90;;;;;;5020453;28;20207;-41
2021/12/02 05:55:52;;;;;;;1.00;0.40;;;1.50;99.90;;;;;;5033685;28;20223;-43
2021/12/02 05:58:19;;;;;;;4.40;0.70;;;1.50;99.90;;;;;;5018398;28;20234;-41
2021/12/02 06:00:47;;;;;;;2.03;0.63;;;1.50;99.90;;;;;;5018180;28;20207;-43
2021/12/02 06:03:14;;;;;;;2.07;0.63;;;1.50;99.90;;;;;;5009027;28;20215;-41
2021/12/02 06:05:42;;;;;;;3.80;1.20;;;1.50;99.90;;;;;;5019689;28;20199;-44
2021/12/02 06:08:09;;;;;;;2.90;1.00;;;1.50;99.90;;;;;;5025392;28;20219;-43
2021/12/02 06:10:35;;;;;;;4.53;0.80;;;1.50;99.90;;;;;;5019589;28;20195;-43
2021/12/02 06:13:02;;;;;;;1.30;0.90;;;1.50;99.90;;;;;;5012877;28;20208;-45
2021/12/02 06:15:29;;;;;;;5.90;1.17;;;1.50;99.90;;;;;;5024204;28;20204;-43
2021/12/02 06:17:57;;;;;;;2.93;0.67;;;1.50;99.90;;;;;;5011599;28;20215;-41
2021/12/02 06:20:23;;;;;;;4.33;0.77;;;1.50;99.90;;;;;;5020546;28;20195;-43
2021/12/02 06:22:50;;;;;;;3.97;1.20;;;1.50;99.90;;;;;;5016897;28;20215;-42
2021/12/02 06:25:44;;;;;;;1.77;0.87;;;1.50;99.90;;;;;;5024111;28;20200;-43
2021/12/02 06:28:06;;;;;;;3.17;0.77;;;1.50;99.90;;;;;;5024007;28;20318;-42
2021/12/02 06:30:33;;;;;;;1.40;0.90;;;1.40;99.90;;;;;;5018890;28;20211;-42
2021/12/02 06:33:01;;;;;;;2.27;0.53;;;1.40;99.90;;;;;;5006219;28;20214;-44
2021/12/02 06:35:28;;;;;;;5.00;1.23;;;1.40;99.90;;;;;;5022964;28;20216;-42
2021/12/02 06:37:55;;;;;;;4.23;1.07;;;1.40;99.90;;;;;;5018403;28;20311;-43
2021/12/02 06:40:22;;;;;;;4.57;0.83;;;1.30;99.90;;;;;;5023536;28;20204;-44
2021/12/02 06:42:49;;;;;;;2.30;0.90;;;1.30;99.90;;;;;;5016839;28;20206;-42
2021/12/02 06:45:15;;;;;;;4.07;1.00;;;1.30;99.90;;;;;;5020323;28;20211;-46
2021/12/02 06:47:42;;;;;;;4.63;0.97;;;1.30;99.90;;;;;;5020530;28;20215;-44
2021/12/02 06:50:16;;;;;;;3.80;1.30;;;1.30;99.90;;;;;;5007865;28;20986;-42
2021/12/02 06:52:43;;;;;;;4.00;0.80;;;1.30;99.90;;;;;;5013807;28;20192;-44
2021/12/02 06:55:11;;;;;;;1.67;0.63;;;1.30;99.90;;;;;;5022156;28;20202;-42
2021/12/02 06:57:38;;;;;;;5.80;1.00;;;1.20;99.90;;;;;;5001542;28;20231;-45
2021/12/02 07:00:08;;;;;;;6.80;0.83;;;1.20;99.90;;;;;;5023863;28;20195;-41
2021/12/02 07:02:35;;;;;;;3.27;1.07;;;1.20;99.90;;;;;;5015494;28;20265;-43
2021/12/02 07:05:02;;;;;;;8.57;1.37;;;1.20;99.90;;;;;;5002484;28;20204;-43
2021/12/02 07:07:34;;;;;;;7.00;1.27;;;1.20;99.90;;;;;;5020885;28;20219;-44
2021/12/02 07:10:03;;;;;;;2.80;1.37;;;1.20;99.90;;;;;;5015099;28;20215;-43
2021/12/02 07:12:32;;;;;;;6.80;1.20;;;1.10;99.90;;;;;;5017778;28;20218;-42
2021/12/02 07:15:04;;;;;;;7.83;2.27;;;1.10;99.90;;;;;;5028004;28;20202;-42
2021/12/02 07:17:32;;;;;;;4.47;2.30;;;1.10;99.90;;;;;;5012182;28;20931;-41
2021/12/02 07:19:59;;;;;;;5.90;1.93;;;1.10;99.90;;;;;;5010924;28;20226;-43
2021/12/02 07:22:25;;;;;;;4.93;1.87;;;1.10;99.90;;;;;;5005181;28;20196;-41
2021/12/02 07:24:53;;;;;;;6.70;1.33;;;1.00;99.90;;;;;;5004451;28;20199;-42
2021/12/02 07:27:20;;;;;;;3.20;1.30;;;1.00;99.90;;;;;;5014748;28;20561;-42
2021/12/02 07:29:47;;;;;;;5.33;1.20;;;1.00;99.90;;;;;;5012128;28;20202;-44
2021/12/02 07:32:14;;;;;;;3.30;0.90;;;1.00;99.90;;;;;;5013875;28;20207;-41
2021/12/02 07:34:44;;;;;;;3.37;1.10;;;1.00;99.90;;;;;;5015461;28;20226;-45
2021/12/02 07:37:12;;;;;;;5.30;1.40;;;1.00;99.90;;;;;;5006404;28;20721;-40
2021/12/02 07:39:39;;;;;;;4.30;0.80;;;1.00;99.90;;;;;;5019164;28;20230;-44
2021/12/02 07:42:08;;;;;;;3.73;1.07;;;1.00;99.90;;;;;;5029119;28;20232;-40
2021/12/02 07:44:35;;;;;;;3.40;1.00;;;1.00;99.90;;;;;;5026281;28;20221;-42
2021/12/02 07:47:02;;;;;;;6.70;0.97;;;1.10;99.90;;;;;;5032797;28;20194;-43
2021/12/02 07:49:29;;;;;;;5.80;0.80;;;1.00;99.90;;;;;;5021227;28;20233;-43
2021/12/02 07:52:00;;;;;;;5.47;1.20;;;1.00;99.90;;;;;;5006330;28;20229;-41
2021/12/02 07:54:28;;;;;;;4.53;1.10;;;1.00;99.90;;;;;;5022032;28;20203;-41
2021/12/02 07:56:54;;;;;;;4.07;1.20;;;1.10;99.90;;;;;;5014267;28;20235;-41
2021/12/02 07:59:23;;;;;;;3.07;1.30;;;1.10;99.90;;;;;;5021093;28;20206;-47
2021/12/02 08:01:49;;;;;;;2.80;0.80;;;1.10;99.90;;;;;;5020851;28;20210;-44
2021/12/02 08:04:16;;;;;;;5.47;1.20;;;1.10;99.90;;;;;;5020692;28;20202;-46
2021/12/02 08:06:43;;;;;;;1.67;1.10;;;1.20;99.90;;;;;;5007486;28;20199;-41
2021/12/02 08:09:13;;;;;;;6.07;1.00;;;1.20;99.90;;;;;;5019554;28;20242;-42
2021/12/02 08:11:40;;;;;;;3.57;1.00;;;1.20;99.90;;;;;;5017580;28;20241;-43
2021/12/02 08:14:12;;;;;;;4.13;0.80;;;1.20;99.90;;;;;;5036663;28;20223;-43
2021/12/02 08:16:40;;;;;;;6.53;1.57;;;1.20;99.90;;;;;;5020622;28;20298;-41
2021/12/02 08:19:08;;;;;;;2.63;0.93;;;1.30;99.90;;;;;;5024219;28;20333;-41
2021/12/02 08:21:35;;;;;;;6.20;1.20;;;1.30;99.90;;;;;;5021875;28;20206;-42
2021/12/02 08:24:01;;;;;;;5.17;1.13;;;1.40;99.90;;;;;;5007822;28;20459;-40
2021/12/02 08:26:28;;;;;;;5.80;1.17;;;1.50;99.90;;;;;;5020859;28;20203;-41
2021/12/02 08:28:54;;;;;;;5.97;1.23;;;1.50;99.90;;;;;;5017905;28;20321;-41
2021/12/02 08:31:21;;;;;;;2.53;1.30;;;1.50;99.90;;;;;;5021422;28;20214;-40
2021/12/02 08:33:51;;;;;;;3.17;1.13;;;1.50;99.90;;;;;;5017575;28;20233;-43
2021/12/02 08:36:21;;;;;;;3.60;1.00;;;1.50;99.90;;;;;;5025484;28;20215;-41
2021/12/02 08:38:49;;;;;;;1.83;0.80;;;1.60;99.90;;;;;;5008548;28;20235;-41
2021/12/02 08:41:18;;;;;;;3.23;0.90;;;1.60;99.90;;;;;;5025928;28;20256;-42
2021/12/02 08:43:45;;;;;;;3.70;1.03;;;1.60;99.90;;;;;;5020244;28;20562;-44
2021/12/02 08:46:11;;;;;;;6.40;1.13;;;1.70;99.90;;;;;;5024680;28;20565;-43
2021/12/02 08:48:38;;;;;;;1.73;1.00;;;1.70;99.90;;;;;;5018672;28;20659;-40
2021/12/02 08:51:06;;;;;;;6.10;1.17;;;1.80;99.90;;;;;;5022945;28;20210;-44
2021/12/02 08:53:33;;;;;;;2.40;0.77;;;1.80;99.90;;;;;;5021239;28;20203;-41
2021/12/02 08:56:00;;;;;;;1.97;0.60;;;1.80;99.90;;;;;;5010056;28;20208;-42
2021/12/02 08:58:26;;;;;;;7.20;1.90;;;1.80;99.90;;;;;;5022693;28;20227;-40
2021/12/02 09:00:53;;;;;;;5.67;1.07;;;1.80;99.90;;;;;;5021969;28;20195;-42
2021/12/02 09:03:20;;;;;;;2.37;1.27;;;1.80;99.90;;;;;;5024171;28;20205;-40
2021/12/02 09:05:46;;;;;;;4.10;0.97;;;1.90;99.90;;;;;;5020877;28;20195;-46
2021/12/02 09:08:15;;;;;;;2.60;1.00;;;1.90;99.90;;;;;;5024065;28;20361;-41
2021/12/02 09:10:42;;;;;;;4.93;0.90;;;1.90;99.90;;;;;;5007853;28;20192;-42
2021/12/02 09:13:10;;;;;;;2.63;0.87;;;1.90;99.90;;;;;;5023260;28;20203;-39
2021/12/02 09:15:38;;;;;;;4.03;0.87;;;1.90;99.90;;;;;;5020048;28;20200;-43
2021/12/02 09:18:04;;;;;;;2.20;0.83;;;2.00;99.90;;;;;;5022304;28;20219;-41
2021/12/02 09:20:31;;;;;;;3.60;1.10;;;2.00;99.90;;;;;;5021934;28;20210;-41
2021/12/02 09:22:58;;;;;;;5.17;1.43;;;2.10;99.90;;;;;;5022931;28;20204;-41
2021/12/02 09:25:27;;;;;;;3.33;1.73;;;2.10;99.90;;;;;;5024611;28;20204;-42
2021/12/02 09:27:54;;;;;;;9.10;1.33;;;2.10;99.90;;;;;;5007717;28;20284;-41
2021/12/02 09:30:21;;;;;;;3.37;1.00;;;2.30;99.90;;;;;;5024778;28;20336;-41
2021/12/02 09:32:47;;;;;;;4.83;1.03;;;2.30;99.90;;;;;;5020793;28;20199;-42
2021/12/02 09:35:15;;;;;;;1.93;0.80;;;2.40;99.90;;;;;;5020609;28;20208;-41
2021/12/02 09:37:42;;;;;;;2.20;1.20;;;2.60;99.90;;;;;;5021145;28;20327;-41
2021/12/02 09:40:12;;;;;;;5.00;1.00;;;2.60;99.90;;;;;;5023691;28;20200;-42
2021/12/02 09:42:40;;;;;;;2.90;1.23;;;2.60;99.90;;;;;;5006343;28;20211;-41
2021/12/02 09:45:08;;;;;;;4.43;1.17;;;2.50;99.90;;;;;;5023685;28;20215;-44
2021/12/02 09:47:38;;;;;;;2.47;0.70;;;2.50;99.90;;;;;;5029197;28;20260;-43
2021/12/02 09:50:11;;;;;;;5.17;1.30;;;2.40;99.90;;;;;;5019506;28;20215;-43
2021/12/02 09:52:40;;;;;;;4.27;1.20;;;2.40;99.90;;;;;;5024888;28;20298;-40
2021/12/02 09:55:16;;;;;;;3.23;1.10;;;2.50;99.90;;;;;;5042019;28;20289;-44
2021/12/02 09:57:49;;;;;;;4.90;1.00;;;2.50;99.90;;;;;;5016644;28;20215;-41
2021/12/02 10:00:18;;;;;;;3.23;1.20;;;2.50;99.90;;;;;;5019806;28;20226;-42
2021/12/02 10:02:53;;;;;;;4.10;0.80;;;2.60;99.90;;;;;;5018018;28;20718;-41
2021/12/02 10:05:33;;;;;;;7.70;1.67;;;2.50;99.90;;;;;;5020315;28;20199;-41
2021/12/02 10:08:04;;;;;;;2.27;0.90;;;2.50;99.90;;;;;;5018732;28;20208;-43
2021/12/02 10:10:33;;;;;;;5.60;1.23;;;2.50;99.90;;;;;;5022861;28;21151;-41
2021/12/02 10:13:12;;;;;;;3.60;1.03;;;2.50;99.90;;;;;;5010060;28;20332;-43
2021/12/02 10:15:41;;;;;;;2.57;1.10;;;2.50;99.90;;;;;;5022611;28;20250;-42
2021/12/02 10:18:11;;;;;;;2.10;1.00;;;2.60;99.90;;;;;;5003792;28;20275;-43
2021/12/02 10:20:41;;;;;;;3.53;0.87;;;2.60;99.90;;;;;;5021223;28;20200;-42
2021/12/02 10:23:14;;;;;;;5.13;0.97;;;2.60;99.90;;;;;;5020920;28;20208;-45
2021/12/02 10:25:45;;;;;;;3.13;1.20;;;2.50;99.90;;;;;;5020290;28;20295;-41
2021/12/02 10:28:16;;;;;;;8.13;1.50;;;2.60;99.90;;;;;;5004568;28;20668;-43
2021/12/02 10:30:44;;;;;;;4.23;1.27;;;2.60;99.90;;;;;;5020342;28;20199;-44
2021/12/02 10:33:12;;;;;;;4.53;1.20;;;2.60;99.90;;;;;;5024927;28;20207;-42
2021/12/02 10:35:42;;;;;;;3.97;0.90;;;2.60;99.90;;;;;;5022006;28;20312;-46
2021/12/02 10:38:38;;;;;;;5.77;1.03;;;2.60;99.90;;;;;;5018108;28;20343;-42
2021/12/02 10:41:08;;;;;;;6.73;1.10;;;2.60;99.90;;;;;;5018530;28;20196;-41
2021/12/02 10:43:37;;;;;;;7.60;1.23;;;2.70;99.90;;;;;;5009690;28;20212;-41
2021/12/02 10:46:13;;;;;;;3.53;0.87;;;2.70;99.90;;;;;;5021077;28;20204;-41
2021/12/02 10:48:46;;;;;;;6.40;1.10;;;2.80;99.90;;;;;;5014501;28;20264;-42
2021/12/02 10:51:37;;;;;;;4.17;1.07;;;2.80;99.90;;;;;;5020946;28;20279;-43
2021/12/02 10:54:07;;;;;;;3.30;0.93;;;2.80;99.90;;;;;;5036774;28;20199;-43
2021/12/02 10:56:35;;;;;;;1.07;0.97;;;2.90;99.90;;;;;;5024315;28;20925;-42
2021/12/02 10:59:24;;;;;;;2.47;0.90;;;2.90;99.90;;;;;;5010155;28;20246;-41
2021/12/02 11:01:51;;;;;;;3.77;0.97;;;2.90;99.90;;;;;;5023735;28;20822;-41
2021/12/02 11:04:19;;;;;;;2.77;0.80;;;3.00;99.90;;;;;;5016692;28;20196;-47
2021/12/02 11:06:48;;;;;;;3.43;1.03;;;3.00;99.90;;;;;;5021232;28;20200;-41
2021/12/02 11:09:25;;;;;;;2.23;0.83;;;3.00;99.90;;;;;;5008361;28;20261;-41
2021/12/02 11:12:09;;;;;;;3.23;1.00;;;3.00;99.90;;;;;;5016696;28;20199;-41
2021/12/02 11:14:41;;;;;;;5.53;1.17;;;2.90;99.90;;;;;;5002643;28;20231;-42
2021/12/02 11:17:09;;;;;;;4.73;1.23;;;2.80;99.90;;;;;;5022465;28;20216;-43
2021/12/02 11:19:36;;;;;;;2.60;0.90;;;2.80;99.90;;;;;;5018702;28;20257;-42
2021/12/02 11:22:09;;;;;;;2.83;0.80;;;2.80;99.90;;;;;;5026817;28;20196;-45
2021/12/02 11:24:36;;;;;;;6.47;1.27;;;2.80;99.90;;;;;;5028992;28;20200;-41
2021/12/02 11:27:08;;;;;;;6.33;1.70;;;2.70;99.90;;;;;;5029643;28;20208;-42
2021/12/02 11:29:58;;;;;;;5.00;1.43;;;2.70;99.90;;;;;;5007872;28;20298;-45
2021/12/02 11:32:40;;;;;;;2.47;0.87;;;2.70;99.90;;;;;;5023339;28;20202;-47
2021/12/02 11:35:20;;;;;;;2.00;0.80;;;2.70;99.90;;;;;;5019351;28;20206;-44
2021/12/02 11:37:49;;;;;;;6.90;1.50;;;2.70;99.90;;;;;;5014761;28;20227;-44
2021/12/02 11:40:20;;;;;;;1.90;1.00;;;2.80;99.90;;;;;;5008162;28;20204;-50
2021/12/02 11:42:50;;;;;;;3.90;1.17;;;2.70;99.90;;;;;;5016944;28;20200;-42
2021/12/02 11:45:19;;;;;;;6.13;1.20;;;2.70;99.90;;;;;;5006105;28;20793;-42
2021/12/02 11:47:47;;;;;;;4.57;1.00;;;2.70;99.90;;;;;;5019055;28;20223;-43
2021/12/02 11:50:15;;;;;;;4.00;1.20;;;2.60;99.90;;;;;;5009379;28;20192;-42
2021/12/02 11:52:43;;;;;;;8.20;1.07;;;2.60;99.90;;;;;;5020265;28;20203;-43
2021/12/02 11:55:13;;;;;;;6.17;0.93;;;2.50;99.90;;;;;;5014278;28;20199;-43
2021/12/02 11:57:40;;;;;;;2.83;1.00;;;2.60;99.90;;;;;;5014889;28;20227;-42
2021/12/02 12:00:10;;;;;;;3.70;0.93;;;2.60;99.90;;;;;;5006753;28;20227;-43
2021/12/02 12:02:48;;;;;;;1.33;0.93;;;2.60;99.90;;;;;;5015758;28;20214;-44
2021/12/02 12:05:16;;;;;;;3.33;1.17;;;2.50;99.90;;;;;;5019938;28;20207;-42
2021/12/02 12:07:46;;;;;;;2.13;0.97;;;2.50;99.90;;;;;;5016102;28;20212;-47
2021/12/02 12:10:16;;;;;;;1.80;0.60;;;2.50;99.90;;;;;;5012585;28;20206;-49
2021/12/02 12:12:43;;;;;;;2.97;1.10;;;2.50;99.90;;;;;;5018489;28;20196;-49
2021/12/02 12:15:35;;;;;;;4.30;1.20;;;2.60;99.90;;;;;;5007558;28;20223;-49
2021/12/02 12:18:05;;;;;;;4.63;1.27;;;2.50;99.90;;;;;;5017261;28;20232;-45
2021/12/02 12:20:56;;;;;;;2.50;0.90;;;2.50;99.90;;;;;;5021141;28;20573;-43
2021/12/02 12:23:40;;;;;;;1.80;1.03;;;2.50;99.90;;;;;;5016610;28;20212;-45
2021/12/02 12:26:24;;;;;;;2.93;0.90;;;2.50;99.90;;;;;;5018608;28;20211;-44
2021/12/02 12:29:27;;;;;;;4.27;1.40;;;2.60;99.90;;;;;;5015231;28;20300;-42
2021/12/02 12:32:49;;;;;;;3.20;0.97;;;2.60;99.90;;;;;;5008924;28;20285;-41
2021/12/02 12:35:33;;;;;;;2.57;0.90;;;2.60;99.90;;;;;;5019668;28;20290;-42
2021/12/02 12:38:04;;;;;;;3.53;0.67;;;2.70;99.90;;;;;;5018181;28;20292;-45
2021/12/02 12:40:40;;;;;;;3.60;1.00;;;2.70;99.90;;;;;;5024179;28;20196;-43
2021/12/02 12:43:31;;;;;;;1.77;0.53;;;2.80;99.90;;;;;;5015664;28;20978;-48
2021/12/02 12:46:19;;;;;;;3.20;0.83;;;2.80;99.90;;;;;;5002222;28;20204;-48
2021/12/02 12:48:46;;;;;;;3.87;1.00;;;2.80;99.90;;;;;;5008567;28;20211;-43
2021/12/02 12:51:30;;;;;;;9.03;1.00;;;2.80;99.90;;;;;;5018592;28;20265;-43
2021/12/02 12:53:58;;;;;;;4.37;0.90;;;2.80;99.90;;;;;;5018128;28;20211;-48
2021/12/02 12:56:34;;;;;;;2.23;0.93;;;2.80;99.90;;;;;;5023238;28;21699;-45
2021/12/02 12:59:10;;;;;;;6.60;0.90;;;2.80;99.90;;;;;;5017129;28;20302;-45
2021/12/02 13:01:38;;;;;;;1.37;0.80;;;2.70;99.90;;;;;;5024680;28;20207;-43
2021/12/02 13:04:14;;;;;;;1.90;0.80;;;2.70;99.90;;;;;;5007830;28;20196;-42
2021/12/02 13:07:00;;;;;;;4.20;1.40;;;2.70;99.90;;;;;;5019027;28;20214;-42
2021/12/02 13:09:41;;;;;;;3.37;0.90;;;2.70;99.90;;;;;;5020802;28;20199;-42
2021/12/02 13:12:10;;;;;;;4.47;1.10;;;2.70;99.90;;;;;;5010517;28;20223;-44
2021/12/02 13:14:37;;;;;;;3.77;1.00;;;2.70;99.90;;;;;;5020890;28;20204;-46
2021/12/02 13:17:38;;;;;;;1.17;0.60;;;2.70;99.90;;;;;;5011394;28;20933;-46